Time;durP1;ratioP1;P1;durP2;ratioP2;P2;SDS_P1;SDS_P2;PMS_P1;PMS_P2;Temp;Humidity;BMP_temperature;BMP_pressure;BME280_temperature;BME280_humidity;BME280_pressure;Samples;Min_cycle;Max_cycle;Signal;HPM_P1;HPM_P2
2023/08/09 00:00:57;;;;;;;4.50;2.80;;;18.20;68.60;;;;;;5044864;28;20763;-76
2023/08/09 00:03:23;;;;;;;3.97;2.50;;;18.20;68.60;;;;;;5040815;28;20426;-77
2023/08/09 00:05:49;;;;;;;5.33;2.63;;;18.20;68.60;;;;;;5049354;28;20188;-75
2023/08/09 00:08:14;;;;;;;4.73;2.37;;;18.20;68.60;;;;;;5052226;28;20272;-76
2023/08/09 00:10:40;;;;;;;3.60;2.70;;;18.20;68.50;;;;;;5045625;28;20202;-76
2023/08/09 00:13:06;;;;;;;3.87;2.83;;;18.20;68.50;;;;;;5049777;28;20221;-77
2023/08/09 00:15:32;;;;;;;5.53;2.60;;;18.20;68.50;;;;;;5050968;28;20437;-76
2023/08/09 00:17:58;;;;;;;4.10;2.50;;;18.20;68.50;;;;;;5052120;28;20499;-76
2023/08/09 00:20:23;;;;;;;5.63;3.10;;;18.30;68.20;;;;;;5047222;28;20464;-76
2023/08/09 00:22:49;;;;;;;3.40;2.37;;;18.30;68.20;;;;;;5046524;28;20186;-76
2023/08/09 00:25:15;;;;;;;4.83;2.63;;;18.30;68.20;;;;;;5048753;28;20189;-77
2023/08/09 00:27:42;;;;;;;2.93;2.17;;;18.20;68.20;;;;;;5051570;28;20205;-77
2023/08/09 00:30:10;;;;;;;6.77;2.63;;;18.30;68.30;;;;;;5048099;28;20454;-76
2023/08/09 00:32:37;;;;;;;4.93;3.00;;;18.20;68.30;;;;;;5046839;28;20598;-78
2023/08/09 00:35:03;;;;;;;2.60;2.10;;;18.20;68.50;;;;;;5052399;28;20425;-78
2023/08/09 00:37:29;;;;;;;3.57;2.63;;;18.30;68.20;;;;;;5052064;28;20470;-78
2023/08/09 00:39:55;;;;;;;3.60;2.37;;;18.30;68.50;;;;;;5050387;28;20465;-77
2023/08/09 00:42:22;;;;;;;3.30;2.23;;;18.20;68.30;;;;;;5048875;28;20458;-78
2023/08/09 00:44:49;;;;;;;4.97;2.53;;;18.20;68.50;;;;;;5052277;28;20522;-79
2023/08/09 00:47:15;;;;;;;3.87;2.50;;;18.20;68.80;;;;;;5048373;28;20448;-76
2023/08/09 00:49:41;;;;;;;4.10;2.50;;;18.10;68.80;;;;;;5046090;28;20458;-76
2023/08/09 00:52:07;;;;;;;5.13;3.00;;;18.10;68.90;;;;;;5046412;28;20502;-77
2023/08/09 00:54:33;;;;;;;2.67;2.27;;;18.00;68.90;;;;;;5049772;28;20243;-76
2023/08/09 00:56:59;;;;;;;3.07;2.40;;;17.90;68.90;;;;;;5038567;28;20532;-76
2023/08/09 00:59:24;;;;;;;3.90;2.30;;;17.80;68.90;;;;;;5050533;28;20207;-76
2023/08/09 01:01:50;;;;;;;3.50;2.20;;;17.80;68.80;;;;;;5047918;28;20470;-77
2023/08/09 01:04:17;;;;;;;4.57;2.27;;;17.80;68.60;;;;;;5050497;28;20257;-77
2023/08/09 01:07:13;;;;;;;3.20;2.07;;;17.90;68.60;;;;;;5051743;28;20196;-76
2023/08/09 01:09:44;;;;;;;4.43;2.30;;;17.90;68.50;;;;;;5047347;28;20460;-77
2023/08/09 01:12:21;;;;;;;3.60;2.20;;;17.90;68.80;;;;;;5044252;28;20480;-77
2023/08/09 01:14:53;;;;;;;4.10;2.23;;;18.00;68.80;;;;;;5048747;28;20473;-77
2023/08/09 01:17:21;;;;;;;4.00;2.50;;;18.00;68.90;;;;;;5050814;28;20791;-76
2023/08/09 01:19:49;;;;;;;4.30;2.63;;;18.00;69.10;;;;;;5048433;28;21227;-78
2023/08/09 01:22:37;;;;;;;3.60;2.00;;;17.80;68.80;;;;;;5060860;28;20468;-79
2023/08/09 01:25:06;;;;;;;4.10;2.47;;;17.80;68.90;;;;;;5066628;28;20434;-78
2023/08/09 01:27:35;;;;;;;3.70;2.30;;;17.80;68.90;;;;;;5053467;28;20925;-76
2023/08/09 01:30:04;;;;;;;4.87;2.60;;;17.80;68.90;;;;;;5046845;28;20518;-76
2023/08/09 01:32:30;;;;;;;2.70;2.23;;;17.80;68.50;;;;;;5049995;28;20953;-78
2023/08/09 01:34:58;;;;;;;4.63;2.50;;;17.80;68.90;;;;;;5044693;28;20452;-77
2023/08/09 01:37:32;;;;;;;5.03;2.00;;;17.70;69.40;;;;;;5046515;28;20435;-76
2023/08/09 01:40:07;;;;;;;6.13;2.27;;;17.70;68.50;;;;;;5050597;28;20929;-77
2023/08/09 01:42:33;;;;;;;4.03;2.10;;;17.70;69.20;;;;;;5049235;28;20818;-77
2023/08/09 01:44:59;;;;;;;4.43;2.70;;;17.70;68.90;;;;;;5048381;28;20438;-76
2023/08/09 01:47:26;;;;;;;3.83;2.73;;;17.70;68.90;;;;;;5050131;28;20570;-76
2023/08/09 01:49:52;;;;;;;5.70;2.47;;;17.70;68.90;;;;;;5048966;28;20200;-77
2023/08/09 01:52:17;;;;;;;4.00;2.43;;;17.70;69.40;;;;;;5045196;28;20486;-77
2023/08/09 01:54:43;;;;;;;4.77;2.77;;;17.70;69.20;;;;;;5050468;28;21012;-78
2023/08/09 01:57:11;;;;;;;3.30;2.40;;;17.60;69.80;;;;;;5051897;28;20659;-78
2023/08/09 01:59:37;;;;;;;5.27;2.10;;;17.60;69.70;;;;;;5051178;28;20275;-78
2023/08/09 02:02:03;;;;;;;5.20;2.73;;;17.50;69.50;;;;;;5046361;28;20471;-79
2023/08/09 02:04:28;;;;;;;5.27;2.67;;;17.50;70.20;;;;;;5050379;28;20451;-77
2023/08/09 02:06:54;;;;;;;4.80;2.80;;;17.40;70.80;;;;;;5052594;28;20526;-78
2023/08/09 02:09:20;;;;;;;4.77;3.27;;;17.40;71.10;;;;;;5053946;28;20992;-78
2023/08/09 02:11:46;;;;;;;3.23;2.60;;;17.40;71.10;;;;;;5049051;28;20219;-79
2023/08/09 02:14:11;;;;;;;4.93;2.60;;;17.30;71.80;;;;;;5053665;28;20438;-78
2023/08/09 02:16:37;;;;;;;9.00;3.03;;;17.30;71.80;;;;;;5051246;28;20643;-78
2023/08/09 02:19:03;;;;;;;4.13;2.73;;;17.30;72.00;;;;;;5058092;28;20196;-79
2023/08/09 02:21:28;;;;;;;3.47;2.20;;;17.30;72.00;;;;;;5052956;28;20211;-78
2023/08/09 02:23:54;;;;;;;4.40;2.50;;;17.30;72.00;;;;;;5051815;28;20215;-79
2023/08/09 02:26:20;;;;;;;3.87;2.77;;;17.30;72.10;;;;;;5056668;28;20192;-78
2023/08/09 02:28:45;;;;;;;2.53;2.07;;;17.30;72.10;;;;;;5056752;28;20199;-79
2023/08/09 02:31:11;;;;;;;3.70;2.70;;;17.30;71.80;;;;;;5048757;28;20215;-79
2023/08/09 02:33:37;;;;;;;5.17;2.53;;;17.30;71.70;;;;;;5050973;28;20227;-79
2023/08/09 02:36:04;;;;;;;4.67;2.23;;;17.40;71.40;;;;;;5054353;28;20427;-80
2023/08/09 02:38:31;;;;;;;3.67;2.50;;;17.40;70.80;;;;;;5053318;28;20427;-79
2023/08/09 02:40:58;;;;;;;4.90;2.33;;;17.40;71.00;;;;;;5044128;28;20491;-78
2023/08/09 02:43:24;;;;;;;4.93;2.80;;;17.40;70.80;;;;;;5053732;28;20452;-79
2023/08/09 02:45:51;;;;;;;3.87;2.53;;;17.40;70.40;;;;;;5059548;28;20883;-78
2023/08/09 02:48:16;;;;;;;3.87;2.60;;;17.40;70.20;;;;;;5055586;28;20497;-79
2023/08/09 02:50:43;;;;;;;3.77;2.50;;;17.40;69.70;;;;;;5047295;28;20882;-80
2023/08/09 02:53:09;;;;;;;4.63;2.90;;;17.50;69.50;;;;;;5051244;28;20658;-79
2023/08/09 02:55:35;;;;;;;3.87;2.50;;;17.50;69.20;;;;;;5051995;28;20431;-79
2023/08/09 02:58:03;;;;;;;5.53;2.10;;;17.50;69.50;;;;;;5052651;28;20435;-78
2023/08/09 03:00:32;;;;;;;4.97;2.50;;;17.50;69.50;;;;;;5047145;28;20315;-79
2023/08/09 03:02:58;;;;;;;4.60;2.50;;;17.50;69.70;;;;;;5048504;28;20430;-76
2023/08/09 03:05:25;;;;;;;3.43;2.43;;;17.60;69.50;;;;;;5050706;28;20431;-77
2023/08/09 03:07:51;;;;;;;4.30;2.37;;;17.60;69.50;;;;;;5046790;28;20529;-77
2023/08/09 03:10:17;;;;;;;9.17;2.97;;;17.60;69.70;;;;;;5048496;28;20820;-78
2023/08/09 03:12:43;;;;;;;4.13;2.13;;;17.60;69.20;;;;;;5045153;28;20502;-76
2023/08/09 03:15:10;;;;;;;3.77;2.00;;;17.60;69.20;;;;;;5047489;28;20435;-78
2023/08/09 03:17:36;;;;;;;3.40;2.07;;;17.60;68.20;;;;;;5052534;28;20189;-78
2023/08/09 03:20:14;;;;;;;4.60;2.50;;;17.70;67.90;;;;;;5045889;28;20523;-77
2023/08/09 03:22:41;;;;;;;2.67;2.37;;;17.60;67.50;;;;;;5054943;28;20197;-78
2023/08/09 03:25:07;;;;;;;7.97;2.37;;;17.70;67.50;;;;;;5064614;28;20440;-77
2023/08/09 03:27:33;;;;;;;4.10;2.40;;;17.80;67.50;;;;;;5053701;28;20436;-79
2023/08/09 03:29:59;;;;;;;3.40;2.60;;;17.80;67.30;;;;;;5057363;28;20249;-77
2023/08/09 03:32:25;;;;;;;4.83;2.50;;;17.80;68.50;;;;;;5051749;28;20216;-79
2023/08/09 03:34:51;;;;;;;4.37;2.50;;;17.70;68.90;;;;;;5052199;28;20423;-78
2023/08/09 03:37:16;;;;;;;3.17;2.40;;;17.60;69.70;;;;;;5055901;28;20185;-78
2023/08/09 03:39:42;;;;;;;4.23;2.40;;;17.50;70.20;;;;;;5055470;28;20192;-79
2023/08/09 03:42:07;;;;;;;13.23;2.43;;;17.40;70.10;;;;;;5045102;28;20578;-77
2023/08/09 03:44:33;;;;;;;3.77;2.63;;;17.30;70.70;;;;;;5053557;28;20191;-79
2023/08/09 03:46:59;;;;;;;3.43;2.23;;;17.30;70.10;;;;;;5050033;28;20191;-78
2023/08/09 03:49:24;;;;;;;3.67;2.37;;;17.30;70.20;;;;;;5052732;28;20188;-77
2023/08/09 03:51:50;;;;;;;4.90;2.33;;;17.30;70.40;;;;;;5047546;28;21043;-79
2023/08/09 03:54:15;;;;;;;3.50;2.40;;;17.30;69.20;;;;;;5051812;28;20176;-77
2023/08/09 03:56:41;;;;;;;3.50;2.13;;;17.40;69.70;;;;;;5048705;28;20358;-77
2023/08/09 03:59:07;;;;;;;4.27;2.90;;;17.40;70.20;;;;;;5048207;28;20189;-76
2023/08/09 04:01:33;;;;;;;3.60;2.50;;;17.30;70.70;;;;;;5040173;28;20483;-77
2023/08/09 04:03:58;;;;;;;3.40;1.90;;;17.20;70.50;;;;;;5051708;28;20689;-77
2023/08/09 04:06:24;;;;;;;5.07;2.40;;;17.30;69.50;;;;;;5047284;28;20806;-77
2023/08/09 04:08:50;;;;;;;4.17;2.20;;;17.40;69.10;;;;;;5054828;28;20312;-78
2023/08/09 04:11:15;;;;;;;5.53;2.60;;;17.50;68.00;;;;;;5039812;28;21097;-78
2023/08/09 04:13:41;;;;;;;5.93;2.40;;;17.70;67.70;;;;;;5050127;28;20216;-76
2023/08/09 04:16:06;;;;;;;4.20;2.50;;;17.70;67.50;;;;;;5054018;28;20716;-78
2023/08/09 04:18:33;;;;;;;3.93;2.23;;;17.80;67.30;;;;;;5053313;28;20261;-77
2023/08/09 04:20:58;;;;;;;4.43;2.07;;;17.90;66.90;;;;;;5044968;28;20206;-77
2023/08/09 04:23:24;;;;;;;4.40;2.40;;;17.90;66.70;;;;;;5053290;28;20766;-78
2023/08/09 04:25:49;;;;;;;3.80;2.43;;;18.00;66.40;;;;;;5054494;28;20204;-77
2023/08/09 04:28:15;;;;;;;2.90;2.30;;;18.00;66.30;;;;;;5054609;28;20188;-78
2023/08/09 04:30:41;;;;;;;5.23;2.70;;;18.10;66.30;;;;;;5051535;28;20768;-80
2023/08/09 04:33:07;;;;;;;4.10;2.70;;;18.20;66.00;;;;;;5057676;28;20482;-80
2023/08/09 04:35:33;;;;;;;3.27;2.40;;;18.20;65.80;;;;;;5055901;28;20468;-78
2023/08/09 04:38:01;;;;;;;4.27;2.20;;;18.20;66.00;;;;;;5054846;28;20196;-81
2023/08/09 04:40:26;;;;;;;6.50;2.20;;;18.30;65.80;;;;;;5051230;28;20535;-80
2023/08/09 04:42:52;;;;;;;4.47;2.37;;;18.30;65.80;;;;;;5054380;28;21104;-80
2023/08/09 04:45:18;;;;;;;4.10;2.60;;;18.30;65.80;;;;;;5050739;28;20193;-79
2023/08/09 04:47:44;;;;;;;2.80;2.30;;;18.30;65.80;;;;;;5056648;28;20194;-79
2023/08/09 04:50:10;;;;;;;2.70;2.00;;;18.20;66.00;;;;;;5050482;28;20591;-80
2023/08/09 04:52:37;;;;;;;3.40;2.20;;;18.20;66.10;;;;;;5053341;28;20667;-79
2023/08/09 04:55:03;;;;;;;4.50;2.77;;;18.20;66.10;;;;;;5054853;28;20428;-79
2023/08/09 04:57:31;;;;;;;6.03;2.43;;;18.10;66.60;;;;;;5054740;28;20963;-79
2023/08/09 04:59:57;;;;;;;4.70;2.33;;;18.00;66.70;;;;;;5057527;28;20429;-81
2023/08/09 05:02:22;;;;;;;3.30;2.00;;;18.00;66.70;;;;;;5056300;28;20450;-80
2023/08/09 05:04:48;;;;;;;4.30;2.70;;;18.00;66.90;;;;;;5057630;28;20681;-79
2023/08/09 05:07:13;;;;;;;5.40;2.70;;;18.00;67.00;;;;;;5058139;28;20195;-79
2023/08/09 05:09:39;;;;;;;4.00;2.40;;;17.90;67.00;;;;;;5059624;28;20192;-78
2023/08/09 05:12:05;;;;;;;3.67;2.40;;;17.90;67.00;;;;;;5049342;28;20213;-79
2023/08/09 05:14:31;;;;;;;3.83;2.20;;;17.90;67.20;;;;;;5062431;28;20246;-79
2023/08/09 05:16:56;;;;;;;5.23;2.43;;;17.90;67.00;;;;;;5061886;28;20664;-78
2023/08/09 05:19:22;;;;;;;3.70;2.10;;;17.90;67.20;;;;;;5051377;28;20517;-79
2023/08/09 05:21:48;;;;;;;5.67;2.73;;;17.90;67.20;;;;;;5054492;28;20217;-79
2023/08/09 05:24:14;;;;;;;2.93;2.13;;;17.90;67.30;;;;;;5055675;28;20536;-79
2023/08/09 05:26:40;;;;;;;5.57;2.53;;;18.00;67.30;;;;;;5060003;28;20433;-79
2023/08/09 05:29:06;;;;;;;3.27;2.40;;;18.00;67.60;;;;;;5067228;28;20200;-81
2023/08/09 05:31:32;;;;;;;5.10;2.60;;;17.90;67.20;;;;;;5069839;28;20447;-78
2023/08/09 05:33:57;;;;;;;4.73;2.70;;;17.90;67.50;;;;;;5067445;28;20227;-80
2023/08/09 05:36:23;;;;;;;3.50;2.53;;;17.90;67.60;;;;;;5059141;28;20184;-78
2023/08/09 05:38:49;;;;;;;4.10;2.20;;;17.90;67.60;;;;;;5059007;28;20193;-78
2023/08/09 05:41:15;;;;;;;4.03;2.40;;;18.00;67.60;;;;;;5046336;28;20486;-79
2023/08/09 05:43:40;;;;;;;7.90;2.27;;;18.00;67.30;;;;;;5049301;28;20275;-78
2023/08/09 05:46:06;;;;;;;4.30;2.20;;;18.10;67.30;;;;;;5050142;28;20185;-79
2023/08/09 05:48:32;;;;;;;3.47;2.30;;;18.10;67.30;;;;;;5056971;28;20188;-79
2023/08/09 05:50:57;;;;;;;10.60;2.60;;;18.20;67.00;;;;;;5051738;28;20547;-81
2023/08/09 05:53:23;;;;;;;4.83;3.23;;;18.30;67.00;;;;;;5055104;28;20216;-78
2023/08/09 05:55:49;;;;;;;4.13;2.60;;;18.30;67.00;;;;;;5053971;28;20199;-79
2023/08/09 05:58:15;;;;;;;5.63;2.40;;;18.30;67.20;;;;;;5054328;28;20223;-78
2023/08/09 06:00:41;;;;;;;5.40;2.60;;;18.30;67.30;;;;;;5050007;28;20213;-79
2023/08/09 06:03:07;;;;;;;11.83;2.37;;;18.30;67.30;;;;;;5059185;28;20432;-79
2023/08/09 06:05:33;;;;;;;4.53;2.37;;;18.30;67.60;;;;;;5058347;28;20196;-79
2023/08/09 06:07:59;;;;;;;4.07;2.67;;;18.20;67.50;;;;;;5055855;28;20447;-79
2023/08/09 06:10:25;;;;;;;12.40;2.50;;;18.20;67.50;;;;;;5055647;28;20501;-79
2023/08/09 06:12:52;;;;;;;5.20;2.43;;;18.20;67.20;;;;;;5048783;28;21007;-79
2023/08/09 06:15:19;;;;;;;3.40;2.33;;;18.30;67.50;;;;;;5056884;28;20522;-79
2023/08/09 06:17:45;;;;;;;3.07;2.10;;;18.30;67.30;;;;;;5053643;28;20438;-78
2023/08/09 06:20:14;;;;;;;7.00;2.60;;;18.40;67.00;;;;;;5049195;28;20803;-77
2023/08/09 06:22:42;;;;;;;3.50;2.40;;;18.40;67.00;;;;;;5048937;28;20208;-76
2023/08/09 06:25:09;;;;;;;5.00;2.70;;;18.50;66.30;;;;;;5045346;28;20941;-77
2023/08/09 06:27:35;;;;;;;7.63;2.30;;;18.50;66.60;;;;;;5050419;28;20476;-77
2023/08/09 06:30:01;;;;;;;2.80;2.00;;;18.40;66.30;;;;;;5049935;28;20906;-77
2023/08/09 06:32:28;;;;;;;5.13;2.60;;;18.50;66.60;;;;;;5039791;28;20485;-78
2023/08/09 06:34:53;;;;;;;4.63;2.07;;;18.60;65.70;;;;;;5049944;28;20193;-77
2023/08/09 06:37:19;;;;;;;2.77;1.80;;;18.70;66.00;;;;;;5052376;28;20433;-78
2023/08/09 06:39:44;;;;;;;5.10;2.40;;;18.80;65.60;;;;;;5055043;28;20193;-76
2023/08/09 06:42:12;;;;;;;3.83;1.97;;;18.80;65.30;;;;;;5054549;28;20241;-77
2023/08/09 06:44:38;;;;;;;4.60;2.10;;;18.90;65.30;;;;;;5052307;28;20649;-78
2023/08/09 06:47:04;;;;;;;3.60;2.10;;;18.90;65.10;;;;;;5052168;28;20495;-79
2023/08/09 06:49:29;;;;;;;3.97;1.83;;;19.00;65.30;;;;;;5055150;28;20526;-80
2023/08/09 06:51:55;;;;;;;6.50;2.07;;;19.00;65.00;;;;;;5054081;28;20227;-79
2023/08/09 06:54:20;;;;;;;2.77;2.07;;;19.00;65.10;;;;;;5057567;28;20195;-80
2023/08/09 06:56:46;;;;;;;5.10;2.30;;;19.10;64.80;;;;;;5052904;28;20628;-79
2023/08/09 06:59:12;;;;;;;3.87;2.00;;;19.10;64.80;;;;;;5058643;28;20184;-79
2023/08/09 07:01:38;;;;;;;3.03;1.77;;;19.20;64.80;;;;;;5051443;28;20212;-78
2023/08/09 07:04:03;;;;;;;3.70;2.20;;;19.20;64.70;;;;;;5059591;28;20587;-78
2023/08/09 07:06:29;;;;;;;3.30;1.80;;;19.30;64.50;;;;;;5062203;28;20772;-78
2023/08/09 07:08:55;;;;;;;3.83;2.20;;;19.40;64.10;;;;;;5060248;28;20196;-78
2023/08/09 07:11:21;;;;;;;4.00;2.13;;;19.50;64.50;;;;;;5052321;28;20212;-79
2023/08/09 07:13:47;;;;;;;7.60;2.30;;;19.60;64.10;;;;;;5062381;28;20236;-78
2023/08/09 07:16:12;;;;;;;7.50;2.17;;;19.60;64.10;;;;;;5057810;28;20421;-78
2023/08/09 07:18:38;;;;;;;5.67;2.23;;;19.50;64.20;;;;;;5061739;28;20209;-79
2023/08/09 07:21:04;;;;;;;3.50;2.53;;;19.50;64.50;;;;;;5047514;28;20242;-80
2023/08/09 07:23:31;;;;;;;4.83;2.63;;;19.50;64.50;;;;;;5056313;28;20262;-80
2023/08/09 07:25:57;;;;;;;7.10;2.13;;;19.50;64.80;;;;;;5055504;28;20425;-80
2023/08/09 07:28:22;;;;;;;4.03;2.23;;;19.50;64.50;;;;;;5057056;28;20431;-79
2023/08/09 07:30:51;;;;;;;2.27;1.90;;;19.70;64.40;;;;;;5050344;28;20232;-80
2023/08/09 07:33:17;;;;;;;4.30;1.90;;;19.80;64.40;;;;;;5053042;28;20248;-78
2023/08/09 07:35:42;;;;;;;3.50;2.37;;;19.80;64.20;;;;;;5056780;28;20455;-78
2023/08/09 07:38:08;;;;;;;3.07;2.10;;;19.70;64.20;;;;;;5054807;28;20199;-80
2023/08/09 07:40:34;;;;;;;4.33;2.77;;;19.60;64.50;;;;;;5051880;28;20209;-80
2023/08/09 07:43:01;;;;;;;3.70;2.27;;;19.70;64.50;;;;;;5053291;28;20183;-79
2023/08/09 07:45:29;;;;;;;5.07;2.60;;;19.80;64.40;;;;;;5057314;28;20191;-79
2023/08/09 07:47:55;;;;;;;4.10;2.33;;;19.90;64.50;;;;;;5059392;28;20423;-78
2023/08/09 07:50:21;;;;;;;4.83;2.20;;;20.00;64.20;;;;;;5054386;28;20930;-78
2023/08/09 07:52:48;;;;;;;5.50;2.60;;;20.20;63.70;;;;;;5057175;28;20264;-77
2023/08/09 07:55:14;;;;;;;2.80;2.13;;;20.30;63.90;;;;;;5050912;28;20458;-77
2023/08/09 07:57:39;;;;;;;4.73;2.27;;;20.50;63.50;;;;;;5053237;28;20434;-77
2023/08/09 08:00:12;;;;;;;3.47;1.90;;;20.50;63.40;;;;;;5053941;28;20427;-76
2023/08/09 08:02:42;;;;;;;8.73;2.50;;;20.50;63.70;;;;;;5050065;28;20194;-78
2023/08/09 08:05:11;;;;;;;2.83;2.23;;;20.50;63.40;;;;;;5051585;28;20482;-77
2023/08/09 08:07:40;;;;;;;5.40;2.43;;;20.50;63.50;;;;;;5057197;28;20966;-77
2023/08/09 08:10:10;;;;;;;3.10;2.07;;;20.50;63.40;;;;;;5049049;28;20443;-77
2023/08/09 08:12:38;;;;;;;3.60;2.10;;;20.50;63.70;;;;;;5050082;28;20480;-78
2023/08/09 08:15:04;;;;;;;4.27;2.00;;;20.20;64.10;;;;;;5046252;28;20454;-77
2023/08/09 08:17:31;;;;;;;4.33;2.40;;;20.20;64.20;;;;;;5056440;28;20522;-77
2023/08/09 08:19:57;;;;;;;5.70;2.40;;;20.20;64.20;;;;;;5053652;28;20482;-77
2023/08/09 08:22:22;;;;;;;4.70;2.63;;;20.40;64.20;;;;;;5051824;28;20443;-77
2023/08/09 08:24:48;;;;;;;6.10;3.10;;;20.40;64.10;;;;;;5052702;28;20196;-78
2023/08/09 08:27:14;;;;;;;5.07;2.60;;;20.50;63.90;;;;;;5052570;28;20244;-76
2023/08/09 08:29:39;;;;;;;5.50;2.47;;;20.70;63.50;;;;;;5050090;28;20280;-76
2023/08/09 08:32:05;;;;;;;5.10;2.77;;;20.50;63.80;;;;;;5048299;28;20496;-77
2023/08/09 08:34:31;;;;;;;4.47;2.77;;;20.60;63.90;;;;;;5052774;28;20281;-77
2023/08/09 08:37:01;;;;;;;4.47;2.50;;;20.60;63.90;;;;;;5057213;28;20812;-78
2023/08/09 08:39:29;;;;;;;4.50;2.63;;;20.40;64.20;;;;;;5056669;28;20415;-78
2023/08/09 08:41:56;;;;;;;4.50;2.93;;;20.00;64.80;;;;;;5051443;28;20539;-76
2023/08/09 08:44:24;;;;;;;3.57;2.60;;;20.20;64.80;;;;;;5059160;28;20435;-77
2023/08/09 08:46:51;;;;;;;6.03;2.80;;;20.20;64.50;;;;;;5059090;28;20419;-78
2023/08/09 08:49:23;;;;;;;4.60;2.60;;;20.30;64.40;;;;;;5052490;28;20444;-80
2023/08/09 08:51:52;;;;;;;2.77;2.10;;;20.40;64.40;;;;;;5057256;28;20467;-78
2023/08/09 08:54:19;;;;;;;5.87;2.60;;;20.30;64.40;;;;;;5060714;28;20495;-79
2023/08/09 08:56:45;;;;;;;3.83;2.30;;;20.10;64.50;;;;;;5063807;28;20431;-80
2023/08/09 08:59:11;;;;;;;7.47;2.60;;;20.10;64.80;;;;;;5071643;28;20426;-79
2023/08/09 09:01:37;;;;;;;3.83;2.37;;;20.30;64.50;;;;;;5062798;28;20503;-79
2023/08/09 09:04:03;;;;;;;3.63;2.47;;;20.40;64.50;;;;;;5064491;28;20494;-80
2023/08/09 09:06:29;;;;;;;3.80;2.57;;;20.20;64.50;;;;;;5064527;28;20196;-80
2023/08/09 09:08:56;;;;;;;6.60;2.20;;;20.10;65.00;;;;;;5051702;28;20431;-79
2023/08/09 09:11:22;;;;;;;3.40;2.17;;;20.10;65.00;;;;;;5048252;28;20466;-79
2023/08/09 09:13:50;;;;;;;4.87;2.33;;;20.20;65.00;;;;;;5056545;28;20620;-81
2023/08/09 09:16:17;;;;;;;6.87;2.43;;;20.30;64.70;;;;;;5055489;28;20450;-79
2023/08/09 09:18:48;;;;;;;4.30;2.60;;;20.20;64.80;;;;;;5054947;28;20499;-80
2023/08/09 09:21:18;;;;;;;3.87;2.57;;;20.20;65.00;;;;;;5047817;28;20468;-80
2023/08/09 09:23:44;;;;;;;4.70;2.60;;;20.50;65.00;;;;;;5055073;28;20425;-80
2023/08/09 09:26:15;;;;;;;4.57;2.50;;;20.30;64.80;;;;;;5050139;28;20507;-80
2023/08/09 09:28:45;;;;;;;4.57;2.40;;;20.60;64.70;;;;;;5054509;28;20444;-82
2023/08/09 09:31:13;;;;;;;3.23;2.50;;;20.70;64.50;;;;;;5054321;28;20466;-80
2023/08/09 09:33:43;;;;;;;2.83;2.30;;;20.80;64.20;;;;;;5054457;28;20488;-81
2023/08/09 09:36:12;;;;;;;4.43;2.23;;;20.60;64.50;;;;;;5059337;28;20433;-81
2023/08/09 09:38:39;;;;;;;5.40;2.67;;;20.40;64.80;;;;;;5052793;28;20440;-80
2023/08/09 09:41:07;;;;;;;4.17;2.57;;;20.50;64.80;;;;;;5050339;28;20477;-79
2023/08/09 09:43:33;;;;;;;7.27;3.03;;;20.40;64.70;;;;;;5047561;28;20421;-81
2023/08/09 09:46:00;;;;;;;9.20;2.70;;;20.40;65.10;;;;;;5055034;28;20427;-81
2023/08/09 09:48:27;;;;;;;4.20;2.83;;;20.30;64.80;;;;;;5050694;28;20508;-82
2023/08/09 09:50:54;;;;;;;2.80;2.20;;;20.50;65.00;;;;;;5050313;28;20478;-79
2023/08/09 09:53:20;;;;;;;3.57;2.33;;;20.80;64.10;;;;;;5047529;28;20487;-80
2023/08/09 09:55:46;;;;;;;6.20;3.20;;;20.90;64.20;;;;;;5055682;28;20489;-79
2023/08/09 09:58:12;;;;;;;7.27;3.03;;;21.10;63.80;;;;;;5055871;28;20451;-81
2023/08/09 10:00:49;;;;;;;7.63;3.30;;;21.00;63.80;;;;;;5049186;28;20474;-81
2023/08/09 10:03:17;;;;;;;4.07;2.50;;;21.00;64.40;;;;;;5054513;28;20486;-81
2023/08/09 10:05:45;;;;;;;6.17;2.40;;;21.20;63.70;;;;;;5056447;28;20418;-80
2023/08/09 10:08:14;;;;;;;5.83;3.30;;;21.00;64.10;;;;;;5059109;28;20441;-81
2023/08/09 10:10:42;;;;;;;4.60;2.90;;;20.90;64.10;;;;;;5055078;28;20534;-80
2023/08/09 10:13:09;;;;;;;5.93;2.67;;;21.10;64.40;;;;;;5055900;28;20464;-79
2023/08/09 10:15:49;;;;;;;5.63;2.97;;;21.10;63.80;;;;;;5055563;28;20866;-79
2023/08/09 10:18:27;;;;;;;3.63;2.67;;;21.20;64.10;;;;;;5052126;28;20490;-78
2023/08/09 10:20:55;;;;;;;5.30;2.53;;;21.00;64.20;;;;;;5055208;28;21027;-78
2023/08/09 10:23:31;;;;;;;3.83;2.33;;;21.00;64.50;;;;;;5057442;28;20420;-81
2023/08/09 10:25:58;;;;;;;5.70;2.33;;;20.90;64.50;;;;;;5053841;28;20441;-80
2023/08/09 10:28:43;;;;;;;3.50;3.03;;;21.00;64.50;;;;;;5058553;28;20550;-79
2023/08/09 10:31:09;;;;;;;7.53;2.73;;;21.00;64.40;;;;;;5056535;28;20479;-81
2023/08/09 10:33:35;;;;;;;5.97;2.73;;;21.00;64.50;;;;;;5061560;28;20473;-79
2023/08/09 10:36:01;;;;;;;4.70;2.37;;;20.90;64.70;;;;;;5057409;28;20604;-82
2023/08/09 10:38:32;;;;;;;6.00;3.03;;;20.80;65.10;;;;;;5062503;28;20465;-79
2023/08/09 10:41:06;;;;;;;5.27;2.90;;;20.70;65.30;;;;;;5056303;28;20217;-80
2023/08/09 10:43:34;;;;;;;4.83;3.00;;;20.70;65.30;;;;;;5064281;28;20434;-84
2023/08/09 10:46:17;;;;;;;4.03;2.70;;;20.60;65.30;;;;;;5067723;28;20425;-79
2023/08/09 10:48:50;;;;;;;4.80;2.60;;;20.60;65.60;;;;;;5063835;28;20429;-79
2023/08/09 10:51:20;;;;;;;5.47;2.80;;;20.80;65.40;;;;;;5053964;28;20932;-79
2023/08/09 10:54:03;;;;;;;6.70;3.30;;;20.90;65.10;;;;;;5063988;28;20529;-81
2023/08/09 10:56:43;;;;;;;4.70;2.90;;;21.10;64.80;;;;;;5067022;28;20426;-80
2023/08/09 10:59:12;;;;;;;6.40;2.90;;;20.90;65.00;;;;;;5062030;28;20432;-79
2023/08/09 11:01:39;;;;;;;3.97;2.30;;;21.30;64.80;;;;;;5061567;28;20524;-80
2023/08/09 11:04:10;;;;;;;4.20;2.70;;;21.40;64.50;;;;;;5062782;28;20432;-79
2023/08/09 11:06:49;;;;;;;3.47;2.57;;;21.60;63.80;;;;;;5064322;28;20428;-78
2023/08/09 11:09:17;;;;;;;3.60;2.40;;;21.50;64.10;;;;;;5059046;28;20506;-78
2023/08/09 11:11:44;;;;;;;6.40;2.60;;;21.40;63.90;;;;;;5051997;28;20986;-80
2023/08/09 11:14:11;;;;;;;7.10;2.80;;;21.30;64.40;;;;;;5062949;28;20595;-79
2023/08/09 11:16:37;;;;;;;3.40;2.73;;;21.20;64.40;;;;;;5063791;28;20888;-79
2023/08/09 11:19:07;;;;;;;4.23;2.33;;;21.20;64.40;;;;;;5059233;28;20479;-80
2023/08/09 11:21:40;;;;;;;6.30;2.37;;;21.20;64.40;;;;;;5063690;28;20447;-79
2023/08/09 11:24:09;;;;;;;6.80;2.40;;;21.20;64.50;;;;;;5066294;28;20436;-80
2023/08/09 11:26:37;;;;;;;3.20;2.10;;;21.20;64.40;;;;;;5056753;28;20443;-79
2023/08/09 11:29:05;;;;;;;4.10;2.60;;;21.40;64.50;;;;;;5051921;28;20441;-81
2023/08/09 11:31:39;;;;;;;4.47;3.03;;;21.60;64.50;;;;;;5050665;28;20466;-80
2023/08/09 11:34:05;;;;;;;2.77;2.27;;;21.90;64.20;;;;;;5057736;28;20830;-80
2023/08/09 11:36:32;;;;;;;4.70;2.40;;;22.20;62.90;;;;;;5055827;28;20427;-79
2023/08/09 11:38:58;;;;;;;3.30;2.40;;;22.40;62.90;;;;;;5060996;28;20433;-81
2023/08/09 11:41:38;;;;;;;5.57;2.57;;;22.20;62.80;;;;;;5056671;28;20478;-80
2023/08/09 11:44:05;;;;;;;4.63;2.43;;;21.90;63.80;;;;;;5060565;28;20442;-80
2023/08/09 11:46:31;;;;;;;4.30;3.20;;;21.50;64.10;;;;;;5062993;28;20516;-80
2023/08/09 11:49:02;;;;;;;6.20;2.90;;;21.70;64.40;;;;;;5056586;28;20457;-79
2023/08/09 11:51:33;;;;;;;5.07;2.80;;;21.90;63.90;;;;;;5054150;28;20469;-81
2023/08/09 11:53:59;;;;;;;8.90;3.00;;;21.60;64.20;;;;;;5054465;28;20482;-79
2023/08/09 11:56:35;;;;;;;5.00;2.90;;;21.70;64.50;;;;;;5064685;28;20433;-79
2023/08/09 11:59:03;;;;;;;7.33;3.00;;;21.70;64.50;;;;;;5053137;28;20190;-79
2023/08/09 12:01:34;;;;;;;5.73;2.97;;;21.70;64.50;;;;;;5052063;28;20478;-80
2023/08/09 12:04:04;;;;;;;8.20;3.00;;;21.60;64.20;;;;;;5057532;28;20433;-82
2023/08/09 12:06:33;;;;;;;4.60;2.90;;;21.50;63.80;;;;;;5059374;28;20462;-80
2023/08/09 12:08:58;;;;;;;4.63;2.60;;;21.70;63.90;;;;;;5064323;28;20449;-82
2023/08/09 12:11:24;;;;;;;5.10;2.73;;;22.10;63.50;;;;;;5055952;28;20546;-81
2023/08/09 12:13:50;;;;;;;3.93;2.40;;;22.00;63.10;;;;;;5059211;28;20312;-80
2023/08/09 12:16:15;;;;;;;7.17;2.70;;;22.30;63.10;;;;;;5052431;28;20230;-81
2023/08/09 12:18:41;;;;;;;5.07;3.13;;;22.40;62.50;;;;;;5059571;28;20195;-79
2023/08/09 12:21:08;;;;;;;5.30;3.17;;;21.90;63.20;;;;;;5070014;28;20207;-81
2023/08/09 12:23:37;;;;;;;4.73;2.53;;;21.70;63.80;;;;;;5074954;28;20199;-79
2023/08/09 12:26:03;;;;;;;2.73;2.20;;;21.70;64.40;;;;;;5059396;28;20438;-78
2023/08/09 12:28:30;;;;;;;5.53;2.40;;;22.10;63.40;;;;;;5052071;28;20439;-81
2023/08/09 12:30:56;;;;;;;4.63;2.60;;;22.20;62.90;;;;;;5053288;28;20470;-79
2023/08/09 12:33:21;;;;;;;4.90;2.63;;;22.20;63.10;;;;;;5055160;28;20829;-81
2023/08/09 12:35:47;;;;;;;4.10;2.60;;;21.90;63.40;;;;;;5054260;28;20248;-81
2023/08/09 12:38:13;;;;;;;5.10;2.87;;;21.80;63.50;;;;;;5060546;28;20202;-80
2023/08/09 12:40:39;;;;;;;4.60;2.90;;;21.80;63.70;;;;;;5058959;28;20211;-80
2023/08/09 12:43:04;;;;;;;9.10;3.07;;;21.80;63.90;;;;;;5059891;28;20186;-83
2023/08/09 12:45:30;;;;;;;3.57;2.60;;;21.60;63.90;;;;;;5056684;28;20221;-81